createdAt,value
2018-10-11T00:02:03.980Z,16.52
2018-10-11T00:04:32.916Z,15.88
2018-10-11T00:07:01.893Z,16.65
2018-10-11T00:09:30.834Z,16.10
2018-10-11T00:11:59.813Z,16.62
2018-10-11T00:14:29.090Z,16.37
2018-10-11T00:16:58.177Z,16.17
2018-10-11T00:19:27.456Z,15.88
2018-10-11T00:21:56.422Z,16.75
2018-10-11T00:24:25.353Z,16.40
2018-10-11T00:26:54.303Z,16.80
2018-10-11T00:29:23.617Z,17.02
2018-10-11T00:31:52.601Z,16.70
2018-10-11T00:34:21.593Z,16.52
2018-10-11T00:36:50.521Z,16.52
2018-10-11T00:39:19.446Z,16.12
2018-10-11T00:41:48.453Z,16.93
2018-10-11T00:44:17.451Z,17.73
2018-10-11T00:46:47.587Z,18.40
2018-10-11T00:49:16.901Z,18.17
2018-10-11T00:51:46.024Z,17.20
2018-10-11T00:54:14.967Z,18.23
2018-10-11T00:56:43.905Z,18.37
2018-10-11T00:59:12.831Z,18.00
2018-10-11T01:01:42.153Z,17.70
2018-10-11T01:04:11.597Z,18.55
2018-10-11T01:06:40.721Z,17.75
2018-10-11T01:09:11.303Z,19.05
2018-10-11T01:11:40.914Z,18.70
2018-10-11T01:14:10.618Z,18.35
2018-10-11T01:16:39.662Z,18.62
2018-10-11T01:19:08.876Z,18.87
2018-10-11T01:21:37.816Z,17.73
2018-10-11T01:24:07.091Z,18.45
2018-10-11T01:26:36.069Z,19.15
2018-10-11T01:29:05.490Z,18.82
2018-10-11T01:31:34.636Z,19.10
2018-10-11T01:34:03.890Z,18.75
2018-10-11T01:36:33.158Z,19.27
2018-10-11T01:39:02.081Z,18.87
2018-10-11T01:41:31.019Z,19.62
2018-10-11T01:44:00.121Z,19.35
2018-10-11T01:46:29.079Z,18.90
2018-10-11T01:48:58.270Z,18.65
2018-10-11T01:51:27.407Z,18.77
2018-10-11T01:53:56.369Z,20.25
2018-10-11T01:56:25.306Z,19.20
2018-10-11T01:58:54.273Z,20.23
2018-10-11T02:01:23.323Z,19.65
2018-10-11T02:03:52.278Z,19.87
2018-10-11T02:06:21.544Z,19.65
2018-10-11T02:08:50.505Z,19.82
2018-10-11T02:11:19.440Z,19.92
2018-10-11T02:13:48.378Z,19.90
2018-10-11T02:16:17.303Z,19.07
2018-10-11T02:18:46.210Z,20.12
2018-10-11T02:21:15.182Z,20.48
2018-10-11T02:23:44.144Z,20.48
2018-10-11T02:26:13.115Z,20.68
2018-10-11T02:28:42.071Z,19.62
2018-10-11T02:31:11.050Z,20.65
2018-10-11T02:33:39.992Z,20.88
2018-10-11T02:36:08.965Z,20.77
2018-10-11T02:38:37.889Z,20.75
2018-10-11T02:41:06.867Z,20.70
2018-10-11T02:43:35.801Z,19.45
2018-10-11T02:46:05.095Z,20.05
2018-10-11T02:48:34.046Z,20.82
2018-10-11T02:51:02.961Z,20.15
2018-10-11T02:53:31.943Z,20.77
2018-10-11T02:56:00.976Z,20.57
2018-10-11T02:58:41.022Z,20.35
2018-10-11T03:01:10.056Z,20.80
2018-10-11T03:03:39.364Z,20.02
2018-10-11T03:06:08.365Z,20.60
2018-10-11T03:08:37.350Z,21.45
2018-10-11T03:11:06.368Z,20.92
2018-10-11T03:13:35.305Z,21.05
2018-10-11T03:16:04.646Z,20.97
2018-10-11T03:18:33.601Z,21.97
2018-10-11T03:21:02.549Z,20.48
2018-10-11T03:23:31.491Z,21.55
2018-10-11T03:26:00.464Z,21.60
2018-10-11T03:28:29.463Z,20.85
2018-10-11T03:30:58.387Z,21.68
2018-10-11T03:33:27.346Z,21.45
2018-10-11T03:35:56.314Z,22.20
2018-10-11T03:38:25.251Z,22.13
2018-10-11T03:40:54.190Z,21.05
2018-10-11T03:43:23.174Z,21.33
2018-10-11T03:45:52.151Z,21.12
2018-10-11T03:48:21.109Z,21.48
2018-10-11T03:50:50.035Z,22.67
2018-10-11T03:53:18.987Z,20.82
2018-10-11T03:55:47.939Z,21.30
2018-10-11T03:58:16.873Z,21.07
2018-10-11T04:00:45.871Z,21.57
2018-10-11T04:03:15.219Z,21.75
2018-10-11T04:05:44.217Z,20.52
2018-10-11T04:08:13.217Z,20.95
2018-10-11T04:10:42.233Z,19.52
2018-10-11T04:13:11.344Z,21.15
2018-10-11T04:15:40.703Z,22.52
2018-10-11T04:18:09.826Z,24.72
2018-10-11T04:20:38.974Z,23.42
2018-10-11T04:23:07.903Z,23.52
2018-10-11T04:25:36.826Z,22.80
2018-10-11T04:28:05.777Z,21.82
2018-10-11T04:30:34.709Z,22.15
2018-10-11T04:33:03.658Z,22.30
2018-10-11T04:35:32.573Z,22.25
2018-10-11T04:38:01.498Z,23.60
2018-10-11T04:40:30.419Z,24.18
2018-10-11T04:42:59.391Z,30.62
2018-10-11T04:45:28.489Z,26.42
2018-10-11T04:47:57.433Z,25.17
2018-10-11T04:50:26.407Z,24.82
2018-10-11T04:52:55.333Z,23.05
2018-10-11T04:55:24.283Z,22.80
2018-10-11T04:57:53.255Z,22.00
2018-10-11T05:00:22.161Z,22.42
2018-10-11T05:02:51.127Z,25.68
2018-10-11T05:05:20.108Z,24.57
2018-10-11T05:07:49.205Z,22.73
2018-10-11T05:10:18.341Z,23.45
2018-10-11T05:12:47.353Z,22.10
2018-10-11T05:15:16.369Z,22.52
2018-10-11T05:17:45.726Z,24.27
2018-10-11T05:20:14.971Z,24.25
2018-10-11T05:22:43.919Z,23.40
2018-10-11T05:25:13.254Z,24.98
2018-10-11T05:27:42.580Z,24.87
2018-10-11T05:30:11.521Z,25.15
2018-10-11T05:32:40.676Z,26.10
2018-10-11T05:35:09.621Z,26.55
2018-10-11T05:37:39.577Z,24.95
2018-10-11T05:40:08.801Z,24.50
2018-10-11T05:42:38.057Z,22.75
2018-10-11T05:45:12.688Z,25.45
2018-10-11T05:47:42.258Z,23.67
2018-10-11T05:50:11.764Z,23.47
2018-10-11T05:52:41.498Z,23.50
2018-10-11T05:55:10.849Z,23.27
2018-10-11T05:57:39.980Z,22.10
2018-10-11T06:00:09.808Z,23.90
2018-10-11T06:02:49.805Z,23.35
2018-10-11T06:05:18.746Z,25.20
2018-10-11T06:07:48.876Z,24.70
2018-10-11T06:10:18.254Z,24.05
2018-10-11T06:12:47.304Z,23.47
2018-10-11T06:15:16.306Z,26.37
2018-10-11T06:17:45.622Z,25.57
2018-10-11T06:20:14.796Z,26.07
2018-10-11T06:22:45.444Z,26.33
2018-10-11T06:25:14.509Z,26.27
2018-10-11T06:27:43.738Z,22.95
2018-10-11T06:30:14.005Z,23.07
2018-10-11T06:32:44.103Z,24.80
2018-10-11T06:35:13.699Z,24.27
2018-10-11T06:37:43.479Z,23.73
2018-10-11T06:40:12.483Z,21.37
2018-10-11T06:42:41.846Z,21.73
2018-10-11T06:45:11.883Z,22.67
2018-10-11T06:47:41.403Z,21.45
2018-10-11T06:50:10.494Z,21.50
2018-10-11T06:52:39.693Z,25.37
2018-10-11T06:55:08.671Z,23.27
2018-10-11T06:57:37.609Z,21.52
2018-10-11T07:00:06.679Z,20.88
2018-10-11T07:02:35.661Z,20.40
2018-10-11T07:05:04.691Z,20.27
2018-10-11T07:07:34.153Z,19.87
2018-10-11T07:10:03.137Z,19.15
2018-10-11T07:12:32.088Z,21.62
2018-10-11T07:15:00.995Z,21.40
2018-10-11T07:17:29.937Z,20.88
2018-10-11T07:19:58.861Z,21.02
2018-10-11T07:22:27.889Z,20.68
2018-10-11T07:24:56.834Z,18.92
2018-10-11T07:27:25.810Z,19.45
2018-10-11T07:29:54.810Z,18.90
2018-10-11T07:32:23.763Z,18.92
2018-10-11T07:34:52.747Z,18.00
2018-10-11T07:37:21.882Z,18.62
2018-10-11T07:39:50.868Z,20.43
2018-10-11T07:42:20.012Z,18.05
2018-10-11T07:44:49.065Z,18.17
2018-10-11T07:47:18.349Z,19.00
2018-10-11T07:49:52.923Z,17.73
2018-10-11T07:52:21.904Z,18.70
2018-10-11T07:54:50.824Z,17.62
2018-10-11T07:57:19.821Z,17.73
2018-10-11T07:59:48.794Z,18.60
2018-10-11T08:02:17.759Z,17.62
2018-10-11T08:04:46.701Z,17.00
2018-10-11T08:07:15.730Z,18.42
2018-10-11T08:09:44.819Z,17.00
2018-10-11T08:12:14.123Z,16.70
2018-10-11T08:14:43.077Z,18.02
2018-10-11T08:17:12.343Z,17.35
2018-10-11T08:19:41.244Z,19.87
2018-10-11T08:22:10.373Z,16.12
2018-10-11T08:24:39.392Z,16.27
2018-10-11T08:27:08.548Z,16.25
2018-10-11T08:29:37.683Z,15.90
2018-10-11T08:32:06.799Z,15.85
2018-10-11T08:34:35.853Z,16.25
2018-10-11T08:37:04.854Z,16.45
2018-10-11T08:39:33.813Z,16.12
2018-10-11T08:42:02.868Z,16.90
2018-10-11T08:44:31.823Z,14.80
2018-10-11T08:47:00.785Z,14.98
2018-10-11T08:49:29.762Z,14.43
2018-10-11T08:51:58.716Z,15.08
2018-10-11T08:54:33.329Z,14.20
2018-10-11T08:57:02.504Z,14.60
2018-10-11T08:59:31.535Z,13.80
2018-10-11T09:02:00.716Z,14.18
2018-10-11T09:04:29.683Z,13.90
2018-10-11T09:06:58.704Z,13.35
2018-10-11T09:09:27.718Z,13.22
2018-10-11T09:11:56.822Z,13.68
2018-10-11T09:14:25.768Z,13.40
2018-10-11T09:16:54.700Z,14.10
2018-10-11T09:19:23.716Z,13.65
2018-10-11T09:21:52.666Z,13.53
2018-10-11T09:24:21.666Z,13.45
2018-10-11T09:26:50.652Z,12.98
2018-10-11T09:29:19.653Z,13.32
2018-10-11T09:31:48.615Z,12.65
2018-10-11T09:34:17.590Z,12.40
2018-10-11T09:36:46.536Z,11.95
2018-10-11T09:39:15.539Z,12.45
2018-10-11T09:41:44.509Z,11.70
2018-10-11T09:44:13.521Z,11.95
2018-10-11T09:46:42.491Z,11.43
2018-10-11T09:49:11.474Z,10.78
2018-10-11T09:51:40.445Z,11.03
2018-10-11T09:54:09.405Z,10.82
2018-10-11T09:57:47.227Z,10.88
2018-10-11T10:00:21.424Z,10.78
2018-10-11T10:02:51.077Z,10.55
2018-10-11T10:05:20.069Z,10.63
2018-10-11T10:07:49.070Z,10.93
2018-10-11T10:10:18.044Z,10.80
2018-10-11T10:12:46.954Z,11.10
2018-10-11T10:15:16.023Z,11.00
2018-10-11T10:17:45.075Z,11.15
2018-10-11T10:20:14.067Z,11.18
2018-10-11T10:22:43.013Z,11.30
2018-10-11T10:25:12.039Z,11.18
2018-10-11T10:27:40.967Z,12.15
2018-10-11T10:30:15.483Z,11.75
2018-10-11T10:32:44.757Z,11.35
2018-10-11T10:35:13.741Z,10.78
2018-10-11T10:37:42.707Z,12.70
2018-10-11T10:40:11.997Z,11.55
2018-10-11T10:42:40.939Z,12.13
2018-10-11T10:45:09.911Z,11.20
2018-10-11T10:47:39.222Z,11.85
2018-10-11T10:50:08.255Z,12.68
2018-10-11T10:52:37.405Z,11.38
2018-10-11T10:55:06.747Z,12.13
2018-10-11T10:57:35.713Z,11.08
2018-10-11T11:00:05.079Z,11.57
2018-10-11T11:02:34.110Z,10.85
2018-10-11T11:05:03.291Z,11.35
2018-10-11T11:07:32.253Z,12.07
2018-10-11T11:10:01.200Z,12.28
2018-10-11T11:12:30.226Z,11.25
2018-10-11T11:14:59.201Z,11.85
2018-10-11T11:17:28.152Z,11.38
2018-10-11T11:19:57.120Z,11.08
2018-10-11T11:22:26.063Z,11.78
2018-10-11T11:24:55.016Z,12.18
2018-10-11T11:27:23.980Z,11.68
2018-10-11T11:29:52.950Z,11.35
2018-10-11T11:32:21.932Z,11.73
2018-10-11T11:34:50.868Z,12.33
2018-10-11T11:37:19.845Z,11.65
2018-10-11T11:39:48.839Z,11.80
2018-10-11T11:42:17.922Z,11.68
2018-10-11T11:44:46.903Z,11.53
2018-10-11T11:47:15.914Z,11.50
2018-10-11T11:49:44.890Z,11.65
2018-10-11T11:52:14.044Z,11.88
2018-10-11T11:54:43.166Z,11.55
2018-10-11T11:57:12.121Z,11.80
2018-10-11T11:59:41.049Z,11.97
2018-10-11T12:02:10.044Z,12.68
2018-10-11T12:04:39.142Z,12.47
2018-10-11T12:07:08.749Z,11.50
2018-10-11T12:09:37.741Z,11.65
2018-10-11T12:12:07.115Z,12.13
2018-10-11T12:14:36.075Z,11.97
2018-10-11T12:17:05.031Z,12.18
2018-10-11T12:19:34.020Z,12.13
2018-10-11T12:22:03.067Z,12.05
2018-10-11T12:24:31.903Z,11.40
2018-10-11T12:27:00.891Z,10.98
2018-10-11T12:29:29.891Z,11.70
2018-10-11T12:31:58.929Z,10.93
2018-10-11T12:34:27.857Z,11.10
2018-10-11T12:36:56.846Z,11.28
2018-10-11T12:39:25.843Z,10.68
2018-10-11T12:41:54.852Z,11.60
2018-10-11T12:44:23.909Z,11.48
2018-10-11T12:46:52.935Z,11.43
2018-10-11T12:49:22.044Z,11.97
2018-10-11T12:51:51.171Z,10.90
2018-10-11T12:54:20.350Z,10.70
2018-10-11T12:56:49.374Z,10.43
2018-10-11T12:59:19.626Z,10.43
2018-10-11T13:01:48.624Z,10.70
2018-10-11T13:04:17.560Z,10.45
2018-10-11T13:06:46.516Z,10.03
2018-10-11T13:09:15.477Z,10.00
2018-10-11T13:11:44.410Z,9.70
2018-10-11T13:14:13.350Z,10.38
2018-10-11T13:16:42.334Z,9.65
2018-10-11T13:19:11.268Z,9.65
2018-10-11T13:21:39.959Z,9.40
2018-10-11T13:24:09.128Z,9.60
2018-10-11T13:26:38.496Z,10.20
2018-10-11T13:29:07.502Z,9.57
2018-10-11T13:31:36.172Z,9.13
2018-10-11T13:34:04.815Z,9.63
2018-10-11T13:36:33.484Z,9.80
2018-10-11T13:39:02.161Z,10.60
2018-10-11T13:41:31.287Z,11.05
2018-10-11T13:44:00.362Z,10.18
2018-10-11T13:46:29.099Z,10.53
2018-10-11T13:48:57.865Z,10.13
2018-10-11T13:51:27.298Z,11.00
2018-10-11T13:53:58.398Z,11.27
2018-10-11T13:56:25.045Z,10.63
2018-10-11T13:58:53.748Z,10.47
2018-10-11T14:01:22.583Z,10.60
2018-10-11T14:03:51.242Z,9.90
2018-10-11T14:06:20.359Z,10.27
2018-10-11T14:08:49.098Z,10.47
2018-10-11T14:11:17.759Z,10.97
2018-10-11T14:13:46.455Z,9.93
2018-10-11T14:16:15.105Z,10.03
2018-10-11T14:18:43.770Z,10.17
2018-10-11T14:21:12.525Z,10.20
2018-10-11T14:23:41.391Z,9.93
2018-10-11T14:26:10.163Z,10.07
2018-10-11T14:28:38.817Z,9.63
2018-10-11T14:31:07.538Z,10.33
2018-10-11T14:33:36.227Z,10.57
2018-10-11T14:36:05.269Z,10.50
2018-10-11T14:38:34.145Z,9.90
2018-10-11T14:41:03.447Z,10.73
2018-10-11T14:43:32.186Z,9.80
2018-10-11T14:46:01.022Z,9.63
2018-10-11T14:48:29.705Z,9.20
2018-10-11T14:50:58.563Z,10.13
2018-10-11T14:53:27.322Z,10.47
2018-10-11T14:55:56.005Z,10.07
2018-10-11T14:58:24.715Z,11.07
2018-10-11T15:00:53.348Z,10.97
2018-10-11T15:03:22.073Z,9.77
2018-10-11T15:05:50.923Z,10.37
2018-10-11T15:08:20.166Z,10.03
2018-10-11T15:10:48.870Z,11.40
2018-10-11T15:13:17.735Z,10.20
2018-10-11T15:15:46.416Z,9.93
2018-10-11T15:18:15.281Z,10.47
2018-10-11T15:20:43.941Z,11.17
2018-10-11T15:23:12.641Z,10.97
2018-10-11T15:25:41.400Z,9.70
2018-10-11T15:28:10.219Z,11.03
2018-10-11T15:30:39.106Z,10.80
2018-10-11T15:33:07.791Z,11.70
2018-10-11T15:35:36.455Z,11.40
2018-10-11T15:38:05.681Z,10.93
2018-10-11T15:40:34.351Z,11.70
2018-10-11T15:43:03.032Z,11.93
2018-10-11T15:45:31.700Z,11.27
2018-10-11T15:48:00.360Z,11.93
2018-10-11T15:50:29.316Z,11.73
2018-10-11T15:52:58.286Z,12.23
2018-10-11T15:55:27.268Z,11.80
2018-10-11T15:57:56.214Z,12.00
2018-10-11T16:00:25.575Z,12.10
2018-10-11T16:02:54.544Z,12.05
2018-10-11T16:05:23.485Z,12.23
2018-10-11T16:07:52.454Z,12.00
2018-10-11T16:10:21.384Z,13.00
2018-10-11T16:12:50.052Z,11.80
2018-10-11T16:15:18.998Z,11.63
2018-10-11T16:17:48.007Z,12.10
2018-10-11T16:20:17.115Z,14.10
2018-10-11T16:22:45.774Z,13.00
2018-10-11T16:25:14.814Z,12.07
2018-10-11T16:27:44.098Z,11.78
2018-10-11T16:30:13.406Z,12.25
2018-10-11T16:32:44.456Z,11.80
2018-10-11T16:35:13.452Z,12.78
2018-10-11T16:37:42.410Z,12.58
2018-10-11T16:40:11.431Z,11.78
2018-10-11T16:42:40.424Z,12.07
2018-10-11T16:45:09.733Z,12.33
2018-10-11T16:47:38.699Z,11.50
2018-10-11T16:50:07.764Z,12.23
2018-10-11T16:52:36.822Z,12.68
2018-10-11T16:55:05.911Z,12.43
2018-10-11T16:57:34.853Z,12.28
2018-10-11T17:00:04.485Z,12.75
2018-10-11T17:02:33.647Z,12.53
2018-10-11T17:05:02.599Z,13.65
2018-10-11T17:07:31.589Z,13.25
2018-10-11T17:10:00.564Z,13.35
2018-10-11T17:12:29.711Z,12.88
2018-10-11T17:14:58.687Z,13.18
2018-10-11T17:17:27.627Z,12.60
2018-10-11T17:19:56.557Z,13.15
2018-10-11T17:22:25.499Z,13.72
2018-10-11T17:24:54.485Z,12.65
2018-10-11T17:27:23.780Z,13.95
2018-10-11T17:29:52.734Z,13.72
2018-10-11T17:32:21.798Z,15.43
2018-10-11T17:34:50.872Z,14.43
2018-10-11T17:37:19.844Z,14.28
2018-10-11T17:39:48.782Z,13.30
2018-10-11T17:42:17.778Z,14.70
2018-10-11T17:44:46.842Z,13.90
2018-10-11T17:47:15.836Z,14.10
2018-10-11T17:49:44.816Z,15.72
2018-10-11T17:52:13.760Z,15.55
2018-10-11T17:54:47.989Z,14.23
2018-10-11T17:57:16.912Z,14.83
2018-10-11T17:59:45.848Z,14.07
2018-10-11T18:02:14.786Z,13.90
2018-10-11T18:04:43.809Z,15.25
2018-10-11T18:07:13.063Z,16.42
2018-10-11T18:09:42.042Z,16.37
2018-10-11T18:12:11.078Z,17.62
2018-10-11T18:14:40.021Z,19.77
2018-10-11T18:17:08.979Z,22.42
2018-10-11T18:19:38.096Z,16.15
2018-10-11T18:22:07.070Z,16.55
2018-10-11T18:24:36.018Z,15.45
2018-10-11T18:27:05.049Z,17.52
2018-10-11T18:29:34.079Z,18.48
2018-10-11T18:32:03.120Z,19.12
2018-10-11T18:34:32.143Z,19.85
2018-10-11T18:37:01.120Z,17.35
2018-10-11T18:39:30.076Z,17.50
2018-10-11T18:41:59.051Z,16.27
2018-10-11T18:44:28.049Z,17.17
2018-10-11T18:46:57.214Z,17.05
2018-10-11T18:49:26.281Z,18.10
2018-10-11T18:51:55.292Z,19.15
2018-10-11T18:54:24.255Z,18.07
2018-10-11T18:56:53.285Z,18.50
2018-10-11T18:59:22.290Z,17.95
2018-10-11T19:01:51.275Z,20.00
2018-10-11T19:04:20.253Z,18.75
2018-10-11T19:06:49.207Z,18.82
2018-10-11T19:09:18.170Z,18.37
2018-10-11T19:11:47.118Z,19.42
2018-10-11T19:14:16.127Z,19.25
2018-10-11T19:16:45.076Z,19.92
2018-10-11T19:19:14.088Z,19.10
2018-10-11T19:21:43.034Z,17.80
2018-10-11T19:24:12.004Z,18.57
2018-10-11T19:26:40.961Z,19.27
2018-10-11T19:29:10.114Z,17.98
2018-10-11T19:31:39.094Z,20.75
2018-10-11T19:34:08.052Z,24.27
2018-10-11T19:36:37.097Z,23.35
2018-10-11T19:39:09.018Z,23.15
2018-10-11T19:41:38.557Z,24.27
2018-10-11T19:44:07.788Z,24.92
2018-10-11T19:46:37.230Z,24.92
2018-10-11T19:49:06.214Z,25.82
2018-10-11T19:51:35.192Z,23.98
2018-10-11T19:54:04.206Z,24.10
2018-10-11T19:56:33.226Z,23.80
2018-10-11T19:59:02.281Z,23.32
2018-10-11T20:01:31.367Z,22.93
2018-10-11T20:04:00.442Z,23.35
2018-10-11T20:06:29.433Z,22.80
2018-10-11T20:08:58.415Z,23.05
2018-10-11T20:11:27.399Z,22.22
2018-10-11T20:13:56.372Z,22.10
2018-10-11T20:16:25.403Z,23.47
2018-10-11T20:18:54.346Z,23.00
2018-10-11T20:21:23.394Z,21.73
2018-10-11T20:23:52.464Z,21.35
2018-10-11T20:26:21.555Z,21.85
2018-10-11T20:28:50.474Z,22.98
2018-10-11T20:31:19.442Z,22.95
2018-10-11T20:33:48.413Z,22.15
2018-10-11T20:36:17.347Z,23.05
2018-10-11T20:38:46.305Z,23.18
2018-10-11T20:41:15.265Z,22.85
2018-10-11T20:43:44.259Z,23.60
2018-10-11T20:46:13.383Z,21.97
2018-10-11T20:48:42.427Z,22.42
2018-10-11T20:51:11.653Z,20.08
2018-10-11T20:53:40.751Z,21.00
2018-10-11T20:56:10.683Z,21.40
2018-10-11T20:58:39.668Z,21.95
2018-10-11T21:01:08.647Z,24.37
2018-10-11T21:03:37.585Z,22.50
2018-10-11T21:06:06.619Z,22.02
2018-10-11T21:08:35.591Z,20.15
2018-10-11T21:11:04.613Z,21.23
2018-10-11T21:13:33.556Z,20.72
2018-10-11T21:16:02.527Z,20.37
2018-10-11T21:18:31.499Z,19.73
2018-10-11T21:21:00.498Z,21.12
2018-10-11T21:23:29.441Z,21.42
2018-10-11T21:25:58.414Z,21.82
2018-10-11T21:28:27.379Z,21.17
2018-10-11T21:30:56.320Z,20.10
2018-10-11T21:33:25.272Z,20.50
2018-10-11T21:35:54.296Z,20.08
2018-10-11T21:38:23.254Z,20.70
2018-10-11T21:40:52.247Z,19.15
2018-10-11T21:43:21.205Z,20.55
2018-10-11T21:45:50.154Z,19.42
2018-10-11T21:48:19.209Z,19.35
2018-10-11T21:50:48.146Z,19.48
2018-10-11T21:53:17.091Z,20.70
2018-10-11T21:55:46.106Z,19.92
2018-10-11T21:58:15.168Z,18.73
2018-10-11T22:00:49.411Z,19.48
2018-10-11T22:03:18.419Z,19.90
2018-10-11T22:05:47.346Z,20.80
2018-10-11T22:08:16.332Z,19.85
2018-10-11T22:10:45.483Z,20.05
2018-10-11T22:13:14.474Z,20.37
2018-10-11T22:15:43.417Z,19.10
2018-10-11T22:18:12.466Z,19.65
2018-10-11T22:20:41.413Z,20.72
2018-10-11T22:23:10.394Z,19.92
2018-10-11T22:25:39.336Z,18.12
2018-10-11T22:28:08.794Z,20.02
2018-10-11T22:30:37.762Z,19.37
2018-10-11T22:33:06.737Z,19.32
2018-10-11T22:35:35.921Z,19.35
2018-10-11T22:38:05.070Z,18.70
2018-10-11T22:40:34.101Z,19.55
2018-10-11T22:43:03.769Z,19.07
2018-10-11T22:45:32.783Z,19.67
2018-10-11T22:48:01.749Z,18.87
2018-10-11T22:50:30.721Z,18.87
2018-10-11T22:52:59.695Z,19.00
2018-10-11T22:55:31.257Z,18.37
2018-10-11T22:58:01.115Z,19.07
2018-10-11T23:00:30.448Z,18.52
2018-10-11T23:02:59.395Z,18.77
2018-10-11T23:05:28.356Z,19.52
2018-10-11T23:07:57.329Z,20.08
2018-10-11T23:10:26.597Z,20.55
2018-10-11T23:12:55.523Z,19.32
2018-10-11T23:15:24.471Z,18.85
2018-10-11T23:17:53.805Z,17.75
2018-10-11T23:20:22.807Z,18.17
2018-10-11T23:22:51.745Z,19.73
2018-10-11T23:25:21.072Z,18.23
2018-10-11T23:27:50.031Z,18.80
2018-10-11T23:30:19.024Z,19.52
2018-10-11T23:32:48.003Z,18.02
2018-10-11T23:35:16.939Z,20.23
2018-10-11T23:37:45.927Z,20.15
2018-10-11T23:40:14.874Z,20.52
2018-10-11T23:42:43.855Z,19.20
2018-10-11T23:45:13.071Z,19.23
2018-10-11T23:47:42.873Z,20.80
2018-10-11T23:50:12.161Z,21.35
2018-10-11T23:52:41.125Z,19.23
2018-10-11T23:55:10.541Z,19.62
2018-10-11T23:57:39.528Z,19.07
